Time;durP1;ratioP1;P1;durP2;ratioP2;P2;SDS_P1;SDS_P2;PMS_P1;PMS_P2;Temp;Humidity;BMP_temperature;BMP_pressure;BME280_temperature;BME280_humidity;BME280_pressure;Samples;Min_cycle;Max_cycle;Signal;HPM_P1;HPM_P2
2022/09/02 00:02:23;;;;;;;0.20;0.20;;;;;;;13.70;66.80;101429.53;4914246;28;20074;-86
2022/09/02 00:04:50;;;;;;;3.42;0.43;;;;;;;13.66;67.35;101425.19;4931975;28;20192;-85
2022/09/02 00:07:18;;;;;;;1.50;0.20;;;;;;;13.66;67.53;101427.81;4918098;28;20047;-86
2022/09/02 00:09:47;;;;;;;0.95;0.30;;;;;;;13.62;67.94;101428.72;4919111;28;20055;-85
2022/09/02 00:12:15;;;;;;;0.68;0.30;;;;;;;13.60;68.13;101421.72;4940224;28;20086;-85
2022/09/02 00:14:42;;;;;;;0.40;0.40;;;;;;;13.60;67.84;101417.34;4936102;28;20078;-85
2022/09/02 00:17:11;;;;;;;0.82;0.30;;;;;;;13.59;68.24;101414.75;4926528;28;20031;-85
2022/09/02 00:19:39;;;;;;;3.00;1.00;;;;;;;13.56;68.10;101424.38;4942231;28;20051;-85
2022/09/02 00:22:08;;;;;;;1.27;0.70;;;;;;;13.53;68.47;101424.44;4938419;28;20078;-84
2022/09/02 00:24:35;;;;;;;0.22;0.22;;;;;;;13.49;68.70;101416.56;4936939;28;20161;-85
2022/09/02 00:27:03;;;;;;;0.50;0.32;;;;;;;13.46;68.71;101417.47;4934779;28;20051;-85
2022/09/02 00:29:30;;;;;;;0.40;0.40;;;;;;;13.41;69.09;101414.00;4937223;28;20066;-85
2022/09/02 00:31:58;;;;;;;0.43;0.43;;;;;;;13.37;69.27;101410.50;4940697;28;20122;-85
2022/09/02 00:34:26;;;;;;;0.45;0.30;;;;;;;13.29;69.68;101412.31;4938524;28;20769;-86
2022/09/02 00:36:53;;;;;;;2.10;0.40;;;;;;;13.27;70.15;101407.94;4938178;28;20044;-86
2022/09/02 00:39:20;;;;;;;1.75;0.40;;;;;;;13.26;70.29;101403.56;4940251;28;20071;-85
2022/09/02 00:41:47;;;;;;;3.53;0.40;;;;;;;13.21;70.37;101406.25;4934844;28;20149;-85
2022/09/02 00:44:17;;;;;;;0.50;0.47;;;;;;;13.21;70.60;101401.00;4952286;28;20043;-85
2022/09/02 00:46:48;;;;;;;0.43;0.43;;;;;;;13.17;71.27;101400.13;4934993;28;20051;-85
2022/09/02 00:49:25;;;;;;;0.43;0.40;;;;;;;13.14;71.09;101408.06;4937054;28;20151;-85
2022/09/02 00:52:06;;;;;;;0.80;0.25;;;;;;;13.13;71.75;101403.69;4938069;29;20039;-85
2022/09/02 00:54:44;;;;;;;0.85;0.40;;;;;;;13.12;71.38;101401.06;4937087;28;20047;-85
2022/09/02 00:57:18;;;;;;;2.25;0.60;;;;;;;13.08;71.79;101405.47;4951614;28;20050;-85
2022/09/02 01:00:12;;;;;;;0.60;0.40;;;;;;;13.06;72.10;101402.84;4939004;29;20051;-85
2022/09/02 01:02:44;;;;;;;0.35;0.30;;;;;;;13.04;71.78;101411.63;4938592;28;20048;-85
2022/09/02 01:05:14;;;;;;;2.72;0.50;;;;;;;12.99;72.08;101408.16;4920678;28;20059;-85
2022/09/02 01:07:42;;;;;;;0.40;0.40;;;;;;;12.97;72.60;101396.78;4940205;28;20150;-86
2022/09/02 01:10:16;;;;;;;0.30;0.25;;;;;;;12.94;72.76;101391.56;4908890;28;20394;-85
2022/09/02 01:12:42;;;;;;;0.43;0.40;;;;;;;12.90;73.01;101390.69;4950838;28;20071;-85
2022/09/02 01:15:12;;;;;;;1.20;0.30;;;;;;;12.87;73.22;101388.97;4937935;28;20758;-84
2022/09/02 01:17:47;;;;;;;0.70;0.68;;;;;;;12.86;72.84;101384.59;4925215;29;20173;-86
2022/09/02 01:20:24;;;;;;;0.40;0.40;;;;;;;12.87;74.02;101386.34;4926616;28;20122;-85
2022/09/02 01:22:53;;;;;;;1.65;0.40;;;;;;;12.87;74.14;101382.84;4954597;28;20051;-84
2022/09/02 01:25:28;;;;;;;1.10;0.40;;;;;;;12.88;73.42;101388.09;4938210;28;20048;-86
2022/09/02 01:28:05;;;;;;;0.30;0.30;;;;;;;12.89;73.79;101388.94;4923963;28;20082;-85
2022/09/02 01:30:34;;;;;;;3.58;0.70;;;;;;;12.93;73.62;101385.41;4951046;28;20039;-85
2022/09/02 01:33:04;;;;;;;1.75;0.57;;;;;;;12.89;74.10;101387.22;4946200;28;20070;-85
2022/09/02 01:35:32;;;;;;;0.47;0.40;;;;;;;12.83;73.62;101379.34;4942666;28;20042;-85
2022/09/02 01:38:02;;;;;;;2.00;0.77;;;;;;;12.82;74.03;101374.13;4949277;28;20058;-85
2022/09/02 01:40:31;;;;;;;1.88;0.22;;;;;;;12.78;74.61;101383.78;4940844;29;20075;-85
2022/09/02 01:43:10;;;;;;;1.20;0.47;;;;;;;12.77;75.04;101378.53;4959217;28;20045;-85
2022/09/02 01:45:51;;;;;;;0.40;0.40;;;;;;;12.72;75.31;101376.81;4940300;28;20067;-86
2022/09/02 01:48:18;;;;;;;0.55;0.55;;;;;;;12.68;74.99;101374.19;4954745;29;20058;-86
2022/09/02 01:50:51;;;;;;;0.30;0.30;;;;;;;12.64;75.58;101375.09;4947092;28;20055;-85
2022/09/02 01:53:21;;;;;;;3.65;0.40;;;;;;;12.59;75.64;101375.13;4937091;28;20051;-86
2022/09/02 01:55:47;;;;;;;1.88;0.68;;;;;;;12.57;76.06;101369.88;4941752;28;20046;-84
2022/09/02 01:58:17;;;;;;;0.40;0.40;;;;;;;12.55;75.92;101366.41;4961448;28;20050;-85
2022/09/02 02:00:44;;;;;;;2.10;0.50;;;;;;;12.52;76.35;101358.53;4948286;28;20034;-85
2022/09/02 02:03:10;;;;;;;0.30;0.30;;;;;;;12.49;76.47;101357.66;4943131;28;20101;-85
2022/09/02 02:05:37;;;;;;;3.92;0.35;;;;;;;12.45;76.55;101358.56;4948190;28;20031;-85
2022/09/02 02:08:07;;;;;;;0.40;0.40;;;;;;;12.40;76.68;101353.34;4961971;28;20040;-84
2022/09/02 02:10:36;;;;;;;1.55;0.55;;;;;;;12.38;76.59;101353.38;4975975;28;20693;-85
2022/09/02 02:13:03;;;;;;;0.57;0.38;;;;;;;12.36;77.20;101355.13;4942047;28;20412;-86
2022/09/02 02:15:30;;;;;;;0.30;0.30;;;;;;;12.37;77.59;101349.00;4943740;28;20550;-86
2022/09/02 02:17:57;;;;;;;1.13;0.50;;;;;;;12.36;77.31;101347.25;4939232;28;20055;-86
2022/09/02 02:20:26;;;;;;;0.47;0.47;;;;;;;12.34;77.29;101346.38;4935989;28;20042;-85
2022/09/02 02:22:54;;;;;;;0.40;0.20;;;;;;;12.32;77.70;101339.38;4922789;28;20816;-85
2022/09/02 02:25:21;;;;;;;0.52;0.52;;;;;;;12.29;78.18;101345.50;4928749;28;20717;-85
2022/09/02 02:27:53;;;;;;;0.57;0.50;;;;;;;12.28;78.32;101343.78;4929578;29;20167;-85
2022/09/02 02:30:22;;;;;;;0.45;0.45;;;;;;;12.30;78.67;101349.03;4935378;28;20142;-86
2022/09/02 02:32:51;;;;;;;0.25;0.25;;;;;;;12.27;78.66;101342.03;4930326;28;20440;-86
2022/09/02 02:35:19;;;;;;;0.52;0.40;;;;;;;12.27;78.71;101342.03;4919860;28;20050;-86
2022/09/02 02:37:48;;;;;;;0.60;0.60;;;;;;;12.26;79.06;101340.28;4919846;28;20062;-86
2022/09/02 02:40:20;;;;;;;0.52;0.40;;;;;;;12.21;79.39;101345.53;4948947;28;20686;-85
2022/09/02 02:42:53;;;;;;;1.95;0.45;;;;;;;12.22;79.34;101343.81;4912108;28;20039;-86
2022/09/02 02:45:21;;;;;;;0.30;0.30;;;;;;;12.19;79.12;101341.19;4935699;28;20068;-85
2022/09/02 02:47:48;;;;;;;1.20;0.40;;;;;;;12.18;79.22;101345.56;4919924;28;20452;-85
2022/09/02 02:50:22;;;;;;;0.55;0.40;;;;;;;12.16;78.77;101338.59;4928567;28;20098;-85
2022/09/02 02:52:53;;;;;;;1.05;0.65;;;;;;;12.12;79.36;101340.34;4960072;28;20059;-86
2022/09/02 02:55:22;;;;;;;1.90;0.77;;;;;;;12.08;80.52;101333.38;4937306;28;20047;-85
2022/09/02 02:57:49;;;;;;;3.53;0.60;;;;;;;12.06;80.00;101330.75;4933542;28;20062;-86
2022/09/02 03:00:24;;;;;;;0.63;0.40;;;;;;;12.04;79.63;101335.13;4921494;28;20042;-86
2022/09/02 03:02:57;;;;;;;0.52;0.52;;;;;;;12.03;80.00;101328.16;4900911;28;20050;-86
2022/09/02 03:05:25;;;;;;;1.30;0.47;;;;;;;12.03;80.53;101332.50;4914353;28;20047;-86
2022/09/02 03:07:51;;;;;;;0.70;0.70;;;;;;;12.02;79.90;101330.75;4927496;29;20047;-85
2022/09/02 03:10:22;;;;;;;0.77;0.38;;;;;;;11.99;80.43;101328.16;4928326;28;20117;-85
2022/09/02 03:12:49;;;;;;;0.93;0.93;;;;;;;11.97;80.52;101324.66;4929105;28;20043;-85
2022/09/02 03:15:19;;;;;;;0.82;0.40;;;;;;;11.95;80.62;101329.91;4933382;28;20045;-86
2022/09/02 03:17:49;;;;;;;0.90;0.43;;;;;;;11.92;81.30;101324.66;4929057;28;20039;-85
2022/09/02 03:20:20;;;;;;;0.85;0.40;;;;;;;11.92;80.84;101328.16;4914852;28;20159;-85
2022/09/02 03:22:50;;;;;;;1.38;0.50;;;;;;;11.86;81.11;101325.56;4943265;28;20050;-85
2022/09/02 03:25:21;;;;;;;0.57;0.50;;;;;;;11.84;81.74;101321.19;4934322;28;20075;-86
2022/09/02 03:27:51;;;;;;;1.05;0.40;;;;;;;11.84;81.62;101321.19;4932139;28;20051;-86
2022/09/02 03:30:26;;;;;;;1.08;0.63;;;;;;;11.80;82.27;101322.06;4934758;28;20584;-85
2022/09/02 03:33:00;;;;;;;0.70;0.70;;;;;;;11.79;82.47;101323.81;4927383;28;20134;-85
2022/09/02 03:35:29;;;;;;;0.77;0.63;;;;;;;11.77;81.74;101317.69;4916369;28;20051;-82
2022/09/02 03:38:00;;;;;;;0.90;0.35;;;;;;;11.72;82.47;101322.09;4926991;29;20066;-84
2022/09/02 03:40:29;;;;;;;0.63;0.43;;;;;;;11.72;83.61;101320.34;4923861;29;20056;-86
2022/09/02 03:42:56;;;;;;;0.50;0.50;;;;;;;11.71;83.06;101315.13;4922162;29;20055;-86
2022/09/02 03:45:28;;;;;;;2.20;0.70;;;;;;;11.70;83.16;101316.00;4932147;29;20062;-86
2022/09/02 03:47:55;;;;;;;0.50;0.50;;;;;;;11.65;83.69;101316.00;4951458;28;20143;-85
2022/09/02 03:50:28;;;;;;;1.75;0.50;;;;;;;11.62;84.11;101312.53;4940869;29;20056;-85
2022/09/02 03:53:06;;;;;;;2.22;0.60;;;;;;;11.59;83.56;101314.28;4936917;28;20032;-87
2022/09/02 03:55:34;;;;;;;1.70;1.00;;;;;;;11.55;83.87;101322.13;4942794;28;20040;-84
2022/09/02 03:58:01;;;;;;;2.92;0.45;;;;;;;11.52;83.75;101312.53;4952874;28;20020;-84
2022/09/02 04:00:32;;;;;;;0.70;0.57;;;;;;;11.48;85.31;101312.56;4942800;28;20062;-84
2022/09/02 04:03:02;;;;;;;0.95;0.63;;;;;;;11.45;84.71;101313.44;4952402;28;20048;-84
2022/09/02 04:05:31;;;;;;;2.38;0.50;;;;;;;11.42;85.43;101313.44;4954799;28;20023;-84
2022/09/02 04:07:57;;;;;;;2.33;0.70;;;;;;;11.41;85.26;101319.56;4933035;29;20147;-84
2022/09/02 04:10:25;;;;;;;0.60;0.60;;;;;;;11.40;85.86;101315.19;4943509;29;20143;-84
2022/09/02 04:12:52;;;;;;;1.02;0.60;;;;;;;11.39;86.26;101314.31;4934475;29;20724;-84
2022/09/02 04:15:20;;;;;;;3.05;1.60;;;;;;;11.37;85.84;101326.53;4949908;28;20039;-84
2022/09/02 04:17:50;;;;;;;2.22;0.55;;;;;;;11.31;85.98;101325.69;4908609;29;20136;-84
2022/09/02 04:20:16;;;;;;;0.65;0.65;;;;;;;11.26;87.11;101323.06;4944422;28;20099;-84
2022/09/02 04:22:48;;;;;;;3.05;1.02;;;;;;;11.24;86.72;101328.31;4924562;28;20052;-84
2022/09/02 04:25:15;;;;;;;0.50;0.50;;;;;;;11.23;87.17;101323.94;4914772;29;20658;-83
2022/09/02 04:27:43;;;;;;;1.05;0.50;;;;;;;11.23;87.97;101328.31;4930169;29;20060;-84
2022/09/02 04:30:15;;;;;;;2.63;0.85;;;;;;;11.20;87.52;101325.72;4913054;29;20043;-84
2022/09/02 04:32:44;;;;;;;4.13;1.92;;;;;;;11.19;87.67;101327.44;4926997;29;20043;-83
2022/09/02 04:35:14;;;;;;;1.55;1.15;;;;;;;11.16;87.79;101322.22;4921003;29;22583;-85
2022/09/02 04:37:41;;;;;;;1.35;0.90;;;;;;;11.16;88.24;101326.56;4943104;28;20051;-83
2022/09/02 04:40:09;;;;;;;0.95;0.50;;;;;;;11.13;88.10;101324.81;4927072;29;20106;-83
2022/09/02 04:42:38;;;;;;;1.05;0.95;;;;;;;11.09;88.57;101323.06;4924751;29;20760;-83
2022/09/02 04:45:10;;;;;;;1.58;1.00;;;;;;;11.09;88.35;101329.19;4929263;29;20048;-84
2022/09/02 04:47:38;;;;;;;4.00;0.75;;;;;;;11.11;88.41;101325.69;4929588;29;20591;-84
2022/09/02 04:50:16;;;;;;;0.52;0.52;;;;;;;11.06;89.15;101329.19;4900118;29;20051;-85
2022/09/02 04:52:57;;;;;;;2.85;1.05;;;;;;;11.08;89.00;101326.56;4899865;29;20056;-82
2022/09/02 04:55:24;;;;;;;1.77;0.70;;;;;;;11.08;88.95;101324.81;4914927;29;20852;-83
2022/09/02 04:57:54;;;;;;;3.88;1.45;;;;;;;11.10;89.55;101324.81;4932456;29;20063;-84
2022/09/02 05:00:24;;;;;;;2.83;1.50;;;;;;;11.12;88.74;101324.81;4934168;29;20051;-84
2022/09/02 05:02:53;;;;;;;0.88;0.88;;;;;;;11.11;89.53;101328.31;4929375;28;20051;-84
2022/09/02 05:05:22;;;;;;;1.95;1.00;;;;;;;11.13;89.20;101329.19;4926101;29;20079;-84
2022/09/02 05:07:50;;;;;;;3.17;1.45;;;;;;;11.12;89.62;101333.56;4915905;29;20059;-83
2022/09/02 05:10:17;;;;;;;2.38;1.08;;;;;;;11.11;89.00;101323.97;4914057;29;20036;-83
2022/09/02 05:12:44;;;;;;;3.40;1.08;;;;;;;11.12;89.80;101330.06;4932853;29;20044;-83
2022/09/02 05:15:12;;;;;;;3.60;0.90;;;;;;;11.12;89.51;101332.69;4931426;28;20131;-83
2022/09/02 05:17:40;;;;;;;1.17;0.90;;;;;;;11.11;89.66;101323.97;4930673;29;20047;-84
2022/09/02 05:20:10;;;;;;;1.33;1.10;;;;;;;11.14;89.41;101323.09;4931046;29;20135;-83
2022/09/02 05:22:37;;;;;;;1.77;0.70;;;;;;;11.17;89.43;101315.22;4916199;29;20132;-85
2022/09/02 05:25:11;;;;;;;3.72;1.92;;;;;;;11.19;89.84;101321.34;4915658;29;20058;-85
2022/09/02 05:27:40;;;;;;;2.10;1.60;;;;;;;11.19;89.64;101316.94;4930039;29;20123;-84
2022/09/02 05:30:11;;;;;;;3.03;1.00;;;;;;;11.25;89.13;101310.81;4924510;29;20058;-83
2022/09/02 05:32:38;;;;;;;6.45;1.42;;;;;;;11.28;88.77;101318.69;4933407;29;20055;-84
2022/09/02 05:35:06;;;;;;;3.22;2.70;;;;;;;11.31;88.62;101308.19;4931706;29;20047;-84
2022/09/02 05:37:36;;;;;;;0.90;0.90;;;;;;;11.33;88.70;101311.72;4921324;29;20059;-84
2022/09/02 05:40:07;;;;;;;1.05;0.93;;;;;;;11.36;88.17;101309.06;4921999;29;20418;-84
2022/09/02 05:42:34;;;;;;;2.03;1.30;;;;;;;11.38;88.12;101306.44;4942056;29;20051;-85
2022/09/02 05:45:01;;;;;;;2.55;1.05;;;;;;;11.44;88.20;101308.19;4943216;29;20032;-84
2022/09/02 05:47:28;;;;;;;7.78;1.10;;;;;;;11.49;87.61;101320.41;4916948;29;20052;-84
2022/09/02 05:49:55;;;;;;;8.40;1.65;;;;;;;11.54;87.20;101312.53;4936819;29;20103;-83
2022/09/02 05:52:23;;;;;;;2.78;1.63;;;;;;;11.58;86.49;101307.28;4930661;29;20063;-83
2022/09/02 05:54:50;;;;;;;10.75;1.20;;;;;;;11.66;86.59;101301.16;4931212;29;20063;-83
2022/09/02 05:57:20;;;;;;;3.95;1.08;;;;;;;11.70;86.30;101305.50;4913875;29;20051;-83
2022/09/02 05:59:51;;;;;;;1.90;1.15;;;;;;;11.74;85.77;101305.47;4918451;29;20048;-82
2022/09/02 06:02:20;;;;;;;10.73;1.35;;;;;;;11.79;85.78;101301.97;4922404;29;20059;-83
2022/09/02 06:04:52;;;;;;;1.23;1.15;;;;;;;11.82;85.42;101309.81;4917452;29;20062;-83
2022/09/02 06:07:25;;;;;;;1.48;1.05;;;;;;;11.88;85.67;101307.19;4929737;29;20055;-83
2022/09/02 06:09:52;;;;;;;0.87;0.87;;;;;;;11.90;84.82;101303.69;4924823;29;20081;-85
2022/09/02 06:12:23;;;;;;;1.45;1.20;;;;;;;11.97;84.67;101307.19;4930977;29;20283;-84
2022/09/02 06:14:51;;;;;;;1.20;1.10;;;;;;;12.02;84.01;101308.03;4938575;29;20058;-85
2022/09/02 06:17:32;;;;;;;2.85;0.93;;;;;;;12.05;83.98;101302.75;4938373;29;20119;-84
2022/09/02 06:20:08;;;;;;;4.35;1.13;;;;;;;12.15;83.61;101307.97;4932991;29;20048;-84
2022/09/02 06:22:37;;;;;;;2.88;1.63;;;;;;;12.25;82.87;101312.28;4931952;29;20153;-84
2022/09/02 06:25:06;;;;;;;3.05;1.58;;;;;;;12.34;82.44;101314.00;4935106;29;20127;-84
2022/09/02 06:27:56;;;;;;;3.10;1.92;;;;;;;12.40;82.11;101306.97;4938195;29;20063;-85
2022/09/02 06:30:24;;;;;;;3.40;1.95;;;;;;;12.57;81.09;101316.50;4943129;29;20039;-84
2022/09/02 06:32:52;;;;;;;3.15;1.67;;;;;;;12.72;80.48;101308.50;4937802;29;20059;-84
2022/09/02 06:35:19;;;;;;;0.93;0.93;;;;;;;12.98;79.59;101310.03;4936616;29;20475;-85
2022/09/02 06:37:49;;;;;;;3.30;1.20;;;;;;;13.45;77.77;101313.13;4940076;29;20056;-86
2022/09/02 06:40:18;;;;;;;9.50;2.35;;;;;;;13.95;74.13;101310.84;4932143;29;20078;-84
2022/09/02 06:42:46;;;;;;;2.40;1.50;;;;;;;14.42;73.02;101310.19;4917965;29;20039;-84
2022/09/02 06:45:14;;;;;;;6.22;0.90;;;;;;;14.85;71.04;101302.56;4931887;29;20051;-84
2022/09/02 06:47:41;;;;;;;3.70;1.63;;;;;;;15.15;68.12;101315.25;4930556;29;20460;-84
2022/09/02 06:50:10;;;;;;;5.78;1.50;;;;;;;15.20;67.21;101311.63;4934453;29;20035;-84
2022/09/02 06:52:38;;;;;;;3.53;1.42;;;;;;;15.47;67.33;101311.16;4917005;29;20946;-84
2022/09/02 06:55:07;;;;;;;5.22;1.52;;;;;;;15.93;64.95;101302.38;4913720;29;20055;-83
2022/09/02 06:57:35;;;;;;;4.80;1.13;;;;;;;16.31;63.70;101313.88;4901087;29;20050;-84
2022/09/02 07:00:10;;;;;;;6.72;1.83;;;;;;;16.44;63.40;101298.59;4934884;29;20052;-84
2022/09/02 07:02:37;;;;;;;3.58;2.22;;;;;;;16.81;62.33;101303.00;4928265;29;20736;-85
2022/09/02 07:05:14;;;;;;;5.90;1.52;;;;;;;17.36;60.97;101302.53;4897419;29;20388;-84
2022/09/02 07:07:48;;;;;;;3.50;1.63;;;;;;;17.51;59.64;101302.13;4928847;29;20834;-84
2022/09/02 07:10:16;;;;;;;4.60;2.20;;;;;;;17.64;58.76;101301.78;4926268;29;20040;-86
2022/09/02 07:12:44;;;;;;;2.00;1.33;;;;;;;17.88;57.46;101297.53;4926109;29;20048;-85
2022/09/02 07:15:11;;;;;;;2.08;1.63;;;;;;;18.23;56.45;101298.31;4931700;29;20047;-85
2022/09/02 07:17:41;;;;;;;1.25;1.17;;;;;;;18.39;55.51;101297.84;4931456;29;20055;-85
2022/09/02 07:20:17;;;;;;;4.63;1.40;;;;;;;18.73;54.78;101292.31;4933735;29;20139;-85
2022/09/02 07:22:52;;;;;;;37.88;5.38;;;;;;;19.00;53.67;101292.34;4921020;29;20044;-85
2022/09/02 07:25:26;;;;;;;3.78;1.35;;;;;;;19.31;53.06;101289.50;4946962;29;20065;-85
2022/09/02 07:27:55;;;;;;;1.45;1.10;;;;;;;19.46;51.87;101293.41;4947067;29;20032;-85
2022/09/02 07:30:25;;;;;;;4.50;1.30;;;;;;;19.80;51.70;101288.63;4951909;28;20076;-84
2022/09/02 07:32:55;;;;;;;1.30;1.25;;;;;;;19.95;50.69;101287.22;4937345;28;20124;-84
2022/09/02 07:35:23;;;;;;;0.93;0.93;;;;;;;20.43;49.58;101294.19;4949243;28;20040;-86
2022/09/02 07:37:53;;;;;;;5.10;1.13;;;;;;;20.70;48.79;101294.00;4937858;28;20115;-86
2022/09/02 07:40:25;;;;;;;3.92;1.02;;;;;;;21.16;47.95;101296.56;4937493;28;20044;-86
2022/09/02 07:42:55;;;;;;;9.80;1.70;;;;;;;21.67;47.04;101290.78;4954672;28;20044;-85
2022/09/02 07:45:33;;;;;;;4.55;1.40;;;;;;;21.94;45.88;101288.66;4957111;28;20043;-84
2022/09/02 07:48:01;;;;;;;2.45;1.00;;;;;;;22.38;44.06;101280.38;4947138;29;20043;-86
2022/09/02 07:53:26;;;;;;;3.35;1.08;;;;;;;22.56;43.02;101285.78;4942762;29;20031;-86
2022/09/02 07:55:53;;;;;;;2.95;0.77;;;;;;;22.91;42.67;101285.81;4941468;29;20066;-85
2022/09/02 07:58:22;;;;;;;7.53;0.95;;;;;;;23.17;42.33;101283.66;4920740;29;20063;-85
2022/09/02 08:00:50;;;;;;;2.78;0.60;;;;;;;23.23;42.13;101286.84;4940748;29;20052;-85
2022/09/02 08:03:20;;;;;;;2.80;0.95;;;;;;;23.66;41.06;101273.00;4917745;29;20072;-86
2022/09/02 08:05:47;;;;;;;3.50;1.10;;;;;;;24.02;40.68;101273.78;4940244;28;20071;-85
2022/09/02 08:08:22;;;;;;;4.97;0.88;;;;;;;23.99;40.24;101282.84;4908957;29;20059;-85
2022/09/02 08:10:58;;;;;;;1.70;0.73;;;;;;;24.48;39.01;101281.00;4926809;29;20026;-86
2022/09/02 08:13:27;;;;;;;1.98;0.63;;;;;;;24.84;38.76;101283.38;4931547;29;20047;-87
2022/09/02 08:18:47;;;;;;;2.83;0.77;;;;;;;25.63;37.10;101289.38;4942262;29;20052;-86
2022/09/02 08:24:16;;;;;;;0.65;0.65;;;;;;;25.98;36.68;101274.66;4944953;29;20048;-86
2022/09/02 08:26:45;;;;;;;2.78;0.60;;;;;;;26.01;36.04;101280.72;4939361;29;20078;-86
2022/09/02 08:29:26;;;;;;;6.38;1.20;;;;;;;26.32;35.20;101269.81;4925784;29;20047;-86
2022/09/02 08:34:40;;;;;;;2.67;0.60;;;;;;;26.52;34.97;101280.13;4939366;29;20056;-85
2022/09/02 08:37:08;;;;;;;1.52;0.50;;;;;;;26.51;34.57;101277.53;4923644;29;20052;-86
2022/09/02 08:39:40;;;;;;;1.52;0.98;;;;;;;26.33;34.40;101272.41;4957536;28;20059;-87
2022/09/02 08:42:42;;;;;;;0.50;0.50;;;;;;;26.94;33.67;101273.81;4939306;29;20079;-87
2022/09/02 08:48:59;;;;;;;2.88;0.70;;;;;;;28.29;31.06;101257.09;4943380;29;20047;-86
2022/09/02 08:55:05;;;;;;;2.22;0.63;;;;;;;27.57;31.73;101253.28;4938620;28;20301;-87
2022/09/02 08:57:33;;;;;;;0.68;0.40;;;;;;;27.62;32.53;101252.97;4919096;29;20850;-87
2022/09/02 09:00:08;;;;;;;2.58;0.70;;;;;;;27.85;31.63;101251.31;4936460;29;20058;-87
2022/09/02 09:02:55;;;;;;;2.05;0.95;;;;;;;27.83;31.45;101254.09;4923677;29;20452;-87
2022/09/02 09:05:47;;;;;;;2.47;0.80;;;;;;;28.54;30.38;101251.59;4941737;29;20052;-87
2022/09/02 09:09:00;;;;;;;3.85;1.10;;;;;;;29.16;29.93;101246.88;4930375;29;20039;-87
2022/09/02 09:12:08;;;;;;;;;;;;;;;29.44;29.23;101247.44;4925346;29;20403;-86
2022/09/02 09:15:21;;;;;;;2.78;0.93;;;;;;;29.50;28.53;101246.09;4932977;29;19934;-87
2022/09/02 09:18:01;;;;;;;5.07;0.93;;;;;;;29.49;28.54;101238.97;4940616;29;20044;-87
2022/09/02 09:20:41;;;;;;;4.15;0.98;;;;;;;29.47;28.48;101231.00;4911256;29;20044;-87
2022/09/02 09:23:36;;;;;;;4.65;0.65;;;;;;;29.59;28.21;101225.59;4897516;29;20075;-87
2022/09/02 09:26:13;;;;;;;1.85;0.55;;;;;;;29.67;27.89;101217.75;4946746;28;20040;-86
2022/09/02 09:28:51;;;;;;;3.88;1.00;;;;;;;29.86;27.97;101219.81;4954214;28;20040;-87
2022/09/02 09:31:26;;;;;;;4.20;1.25;;;;;;;29.95;27.95;101221.78;4936210;29;20071;-87
2022/09/02 09:34:07;;;;;;;3.60;0.52;;;;;;;30.05;27.55;101218.31;4934403;29;20044;-86
2022/09/02 09:36:54;;;;;;;4.90;0.73;;;;;;;30.35;26.06;101213.06;4937699;29;20056;-86
2022/09/02 09:39:31;;;;;;;3.53;0.52;;;;;;;30.49;25.90;101195.72;4933082;28;20114;-85
2022/09/02 09:42:04;;;;;;;2.50;0.95;;;;;;;30.86;25.92;101202.50;4917391;28;20047;-86
2022/09/02 09:44:46;;;;;;;3.17;0.60;;;;;;;30.32;25.92;101207.03;4917581;28;20083;-86
2022/09/02 09:47:24;;;;;;;1.10;0.50;;;;;;;30.48;25.61;101202.09;4918604;28;20119;-86
2022/09/02 09:50:16;;;;;;;3.17;0.73;;;;;;;30.83;24.89;101200.94;4933042;29;20059;-85
2022/09/02 09:52:43;;;;;;;3.25;0.90;;;;;;;30.44;24.99;101191.66;4915055;28;20062;-86
2022/09/02 09:55:16;;;;;;;4.53;0.50;;;;;;;29.79;25.97;101207.78;4927717;28;20066;-85
2022/09/02 09:57:47;;;;;;;6.03;0.60;;;;;;;30.27;25.06;101198.47;4929551;28;20078;-86
2022/09/02 10:00:37;;;;;;;0.55;0.55;;;;;;;30.34;25.04;101192.44;4918306;28;20086;-86
2022/09/02 10:03:07;;;;;;;0.57;0.50;;;;;;;30.45;25.27;101190.66;4930994;28;20047;-86
2022/09/02 10:05:40;;;;;;;2.42;0.60;;;;;;;31.92;23.14;101183.28;4930323;28;20082;-86
2022/09/02 10:08:16;;;;;;;0.50;0.50;;;;;;;31.97;22.63;101181.88;4935218;28;20334;-86
2022/09/02 10:11:07;;;;;;;1.05;0.70;;;;;;;32.36;22.53;101183.75;4950465;28;20043;-86
2022/09/02 10:14:09;;;;;;;1.42;0.45;;;;;;;32.40;22.55;101187.00;4960073;28;20039;-86
2022/09/02 10:17:42;;;;;;;0.40;0.30;;;;;;;32.07;21.93;101176.47;4962765;28;20057;-86
2022/09/02 10:21:01;;;;;;;2.35;0.43;;;;;;;31.44;22.74;101182.16;4954055;28;20079;-86
2022/09/02 10:23:54;;;;;;;5.50;0.85;;;;;;;31.15;22.79;101174.78;4913625;28;20050;-85
2022/09/02 10:26:51;;;;;;;1.97;0.60;;;;;;;31.09;22.97;101180.72;4963525;28;20475;-86
2022/09/02 10:32:55;;;;;;;0.40;0.40;;;;;;;31.24;23.02;101168.56;4951746;28;20119;-86
2022/09/02 10:36:08;;;;;;;1.15;0.30;;;;;;;32.44;21.56;101153.25;4933869;28;20107;-86
2022/09/02 10:45:43;;;;;;;1.92;0.47;;;;;;;32.99;20.57;101153.38;4968214;28;20039;-87
2022/09/02 10:48:55;;;;;;;1.40;0.45;;;;;;;32.91;20.62;101134.31;4917631;28;20071;-87
2022/09/02 10:55:27;;;;;;;1.05;0.43;;;;;;;34.19;19.37;101142.53;4951774;28;20075;-86
2022/09/02 10:58:29;;;;;;;0.75;0.32;;;;;;;34.39;19.12;101137.81;4971637;28;20088;-87
2022/09/02 11:01:10;;;;;;;4.55;0.98;;;;;;;34.25;19.68;101135.59;4953993;28;20226;-86
2022/09/02 11:04:04;;;;;;;0.30;0.30;;;;;;;35.07;18.65;101136.19;4956295;29;20055;-87
2022/09/02 11:06:59;;;;;;;2.08;0.80;;;;;;;34.68;19.15;101130.34;4976241;28;20046;-86
2022/09/02 11:16:45;;;;;;;2.42;0.50;;;;;;;32.35;20.97;101129.72;4975450;28;20023;-87
2022/09/02 11:25:34;;;;;;;2.75;0.52;;;;;;;32.03;21.06;101114.59;4950355;28;20063;-86
2022/09/02 11:31:54;;;;;;;2.45;0.73;;;;;;;34.02;18.81;101106.22;4909342;28;20122;-86
2022/09/02 11:34:35;;;;;;;1.48;0.80;;;;;;;31.68;21.12;101111.47;4947174;28;20080;-86
2022/09/02 11:37:49;;;;;;;1.40;0.57;;;;;;;30.14;22.47;101109.53;4925280;28;20055;-87
2022/09/02 11:41:05;;;;;;;0.95;0.57;;;;;;;30.17;22.97;101109.31;4948899;28;20051;-85
2022/09/02 11:44:13;;;;;;;1.30;0.68;;;;;;;32.94;20.32;101100.63;4947893;28;20074;-87
2022/09/02 11:51:07;;;;;;;1.35;0.30;;;;;;;32.35;20.28;101105.34;4967519;28;20027;-87
2022/09/02 11:53:54;;;;;;;4.18;0.50;;;;;;;30.67;22.10;101101.38;4967019;28;20039;-86
2022/09/02 11:57:12;;;;;;;0.50;0.45;;;;;;;28.84;23.96;101102.06;4955720;28;20075;-86
2022/09/02 11:59:54;;;;;;;0.80;0.57;;;;;;;30.48;22.11;101094.06;4939156;28;20031;-87
2022/09/02 12:03:09;;;;;;;2.03;0.77;;;;;;;32.43;20.38;101102.75;4969645;28;20039;-85
2022/09/02 12:05:38;;;;;;;3.03;0.50;;;;;;;34.21;18.82;101090.75;4943827;28;20061;-87
2022/09/02 12:19:11;;;;;;;1.05;0.50;;;;;;;34.18;18.30;101081.06;4960485;28;20054;-86
2022/09/02 12:25:58;;;;;;;2.15;0.80;;;;;;;29.79;22.91;101079.13;4949550;28;20356;-90
2022/09/02 12:31:20;;;;;;;1.83;0.68;;;;;;;32.85;20.22;101058.13;4937111;28;20089;-86
2022/09/02 12:36:40;;;;;;;3.58;0.60;;;;;;;34.35;18.94;101052.16;4941985;28;20043;-88
2022/09/02 12:39:37;;;;;;;0.73;0.68;;;;;;;35.07;17.91;101045.53;4948819;28;20043;-87
2022/09/02 12:42:07;;;;;;;6.43;1.10;;;;;;;36.15;17.57;101041.94;4949565;28;20572;-87
2022/09/02 12:45:06;;;;;;;1.17;0.80;;;;;;;34.72;17.95;101044.69;4933714;29;20046;-86
2022/09/02 12:48:12;;;;;;;0.80;0.80;;;;;;;33.78;19.62;101044.38;4944925;28;20043;-86
2022/09/02 12:50:59;;;;;;;2.10;1.05;;;;;;;35.31;17.74;101033.88;4931650;28;20066;-86
2022/09/02 12:56:32;;;;;;;1.15;0.73;;;;;;;35.54;18.06;101034.13;4955191;28;20046;-87
2022/09/02 12:59:10;;;;;;;1.38;0.60;;;;;;;36.29;17.29;101043.09;4948430;28;20691;-85
2022/09/02 13:01:59;;;;;;;2.03;0.70;;;;;;;36.71;16.77;101020.19;4948265;28;20057;-86
2022/09/02 13:04:50;;;;;;;3.08;0.95;;;;;;;34.59;18.54;101023.44;4931013;28;20130;-86
2022/09/02 13:07:54;;;;;;;3.22;0.70;;;;;;;31.74;20.94;101037.81;4937883;28;20045;-87
2022/09/02 13:14:27;;;;;;;0.52;0.50;;;;;;;32.22;20.68;101029.81;4925358;29;20079;-87
2022/09/02 13:17:42;;;;;;;2.85;0.60;;;;;;;33.71;19.33;101022.44;4933022;29;20036;-86
2022/09/02 13:20:21;;;;;;;;;;;;;;;34.84;18.06;101018.97;4947174;28;20047;-86
2022/09/02 13:23:23;;;;;;;4.47;0.45;;;;;;;34.58;18.62;101008.13;4956394;28;19922;-87
2022/09/02 13:26:29;;;;;;;2.78;0.85;;;;;;;36.08;17.48;101003.63;4971963;28;20043;-86